Time;durP1;ratioP1;P1;durP2;ratioP2;P2;SDS_P1;SDS_P2;PMS_P1;PMS_P2;Temp;Humidity;BMP_temperature;BMP_pressure;BME280_temperature;BME280_humidity;BME280_pressure;Samples;Min_cycle;Max_cycle;Signal;HPM_P1;HPM_P2
2022/05/03 00:02:21;;;;;;;10.35;8.63;;;14.30;99.90;;;14.25;100.00;100332.47;4964041;28;20337;-78
2022/05/03 00:05:23;;;;;;;10.88;9.70;;;14.30;99.90;;;14.06;100.00;100322.63;4978520;28;20053;-79
2022/05/03 00:08:11;;;;;;;9.63;8.73;;;14.20;99.90;;;14.08;100.00;100314.66;4977501;28;20049;-79
2022/05/03 00:11:12;;;;;;;9.70;8.80;;;14.20;99.90;;;14.13;100.00;100318.84;5011184;28;20117;-79
2022/05/03 00:14:15;;;;;;;11.05;8.35;;;14.10;99.90;;;14.04;100.00;100319.19;4980424;28;20533;-79
2022/05/03 00:16:44;;;;;;;9.73;8.82;;;14.10;99.90;;;13.99;100.00;100313.22;4995309;28;20062;-79
2022/05/03 00:19:14;;;;;;;9.60;8.32;;;14.40;99.90;;;14.07;100.00;100312.94;4994844;28;20050;-79
2022/05/03 00:21:42;;;;;;;10.63;9.50;;;14.10;99.90;;;13.97;100.00;100307.09;4996015;28;20046;-79
2022/05/03 00:24:09;;;;;;;10.55;9.45;;;14.00;99.90;;;13.93;100.00;100309.03;4995262;28;20687;-79
2022/05/03 00:26:36;;;;;;;9.90;9.00;;;14.30;99.90;;;13.97;100.00;100301.81;5011956;28;20046;-79
2022/05/03 00:29:04;;;;;;;9.15;8.25;;;14.00;99.90;;;13.96;100.00;100308.91;5006299;28;20042;-79
2022/05/03 00:31:31;;;;;;;10.13;9.23;;;15.10;99.90;;;13.95;100.00;100303.66;4994754;28;20105;-80
2022/05/03 00:33:59;;;;;;;9.25;8.30;;;14.10;99.90;;;13.90;100.00;100310.00;4962765;28;20054;-79
2022/05/03 00:36:26;;;;;;;9.60;8.48;;;14.10;99.90;;;13.85;100.00;100301.41;4979258;28;20571;-79
2022/05/03 00:38:53;;;;;;;11.40;9.48;;;13.90;99.90;;;13.73;100.00;100309.81;5010712;28;20263;-79
2022/05/03 00:41:29;;;;;;;9.85;8.85;;;13.90;99.90;;;13.77;100.00;100314.03;5011441;28;20064;-79
2022/05/03 00:47:24;;;;;;;10.13;8.68;;;13.80;99.90;;;13.59;100.00;100307.69;4996534;28;20049;-79
2022/05/03 00:50:03;;;;;;;10.93;9.23;;;13.80;99.90;;;13.52;100.00;100311.47;5008827;28;20042;-79
2022/05/03 00:53:00;;;;;;;10.63;9.50;;;13.70;99.90;;;13.46;100.00;100302.84;4973783;28;20047;-80
2022/05/03 00:55:55;;;;;;;10.65;9.65;;;13.60;99.90;;;13.40;100.00;100302.19;4969540;28;20146;-81
2022/05/03 00:58:43;;;;;;;11.00;8.30;;;13.60;99.90;;;13.38;100.00;100304.88;4991878;28;20530;-79
2022/05/03 01:01:32;;;;;;;10.15;8.85;;;13.50;99.90;;;13.40;100.00;100299.53;4992412;28;20069;-80
2022/05/03 01:04:38;;;;;;;12.20;8.75;;;13.40;99.90;;;13.27;100.00;100305.28;4977593;28;20053;-79
2022/05/03 01:07:30;;;;;;;10.38;9.48;;;13.40;99.90;;;13.19;100.00;100302.06;5010306;28;20042;-79
2022/05/03 01:10:33;;;;;;;10.02;8.40;;;13.30;99.90;;;13.16;100.00;100310.06;4995673;28;20054;-79
2022/05/03 01:13:08;;;;;;;9.85;8.60;;;13.30;99.90;;;13.01;100.00;100306.22;4997143;28;20053;-80
2022/05/03 01:15:44;;;;;;;16.30;10.60;;;13.20;99.90;;;12.91;100.00;100301.25;5012732;28;20057;-80
2022/05/03 01:18:47;;;;;;;10.27;8.48;;;13.10;99.90;;;12.85;100.00;100303.22;4995560;28;20404;-79
2022/05/03 01:21:56;;;;;;;11.13;8.95;;;13.10;99.90;;;12.81;100.00;100304.25;4996238;28;20038;-80
2022/05/03 01:24:50;;;;;;;10.02;9.02;;;13.00;99.90;;;12.71;100.00;100301.91;4970069;28;20061;-79
2022/05/03 01:27:40;;;;;;;9.80;8.80;;;12.90;99.90;;;12.60;100.00;100306.72;5011091;28;20046;-78
2022/05/03 01:30:11;;;;;;;12.13;10.45;;;13.20;99.90;;;12.63;100.00;100304.81;5008915;28;20031;-80
2022/05/03 01:32:44;;;;;;;12.90;9.35;;;12.80;99.90;;;12.55;100.00;100305.97;4996862;28;20050;-79
2022/05/03 01:35:14;;;;;;;13.18;8.93;;;13.20;99.90;;;12.51;100.00;100310.53;4994556;28;20126;-80
2022/05/03 01:38:17;;;;;;;11.95;9.65;;;13.50;99.90;;;12.50;100.00;100314.09;5008344;28;20101;-80
2022/05/03 01:41:13;;;;;;;9.75;8.85;;;12.60;99.90;;;12.45;100.00;100308.06;4992961;28;20051;-80
2022/05/03 01:44:37;;;;;;;11.20;9.48;;;12.60;99.90;;;12.34;100.00;100303.16;4981928;28;20046;-79
2022/05/03 01:47:25;;;;;;;10.35;9.35;;;12.60;99.90;;;12.33;100.00;100317.25;4999086;28;20149;-79
2022/05/03 01:50:37;;;;;;;10.07;9.07;;;12.50;99.90;;;12.27;100.00;100304.28;4995732;28;20046;-80
2022/05/03 01:53:42;;;;;;;10.88;9.00;;;12.40;99.90;;;12.22;100.00;100309.69;4988251;28;20054;-79
2022/05/03 01:56:48;;;;;;;9.73;8.73;;;12.40;99.90;;;12.12;100.00;100311.75;4996719;28;20050;-80
2022/05/03 01:59:40;;;;;;;10.60;9.57;;;12.30;99.90;;;11.97;100.00;100314.84;4930942;28;20055;-79
2022/05/03 02:02:53;;;;;;;10.13;8.88;;;13.10;99.90;;;11.98;100.00;100311.28;4997978;28;20042;-79
2022/05/03 02:06:05;;;;;;;9.73;8.82;;;12.20;99.90;;;11.88;100.00;100316.84;4997805;28;20218;-80
2022/05/03 02:08:53;;;;;;;10.68;8.60;;;12.10;99.90;;;11.92;100.00;100313.19;4965227;28;20043;-79
2022/05/03 02:11:47;;;;;;;10.23;9.18;;;12.20;99.90;;;11.75;100.00;100315.47;4994897;28;20049;-79
2022/05/03 02:14:44;;;;;;;11.60;10.25;;;12.00;99.90;;;11.80;100.00;100320.63;4978788;28;20135;-80
2022/05/03 02:18:03;;;;;;;10.23;9.18;;;11.90;99.90;;;11.70;100.00;100312.13;4982603;28;20047;-80
2022/05/03 02:21:15;;;;;;;9.50;8.50;;;11.90;99.90;;;11.62;100.00;100313.19;5012962;28;20118;-80
2022/05/03 02:24:10;;;;;;;9.55;8.65;;;11.80;99.90;;;11.51;100.00;100315.28;4984881;28;20059;-79
2022/05/03 02:27:10;;;;;;;10.05;9.05;;;11.80;99.90;;;11.52;100.00;100305.59;4980770;28;20041;-81
2022/05/03 02:29:49;;;;;;;9.60;8.63;;;12.00;99.90;;;11.53;100.00;100313.47;4998073;28;20050;-80
2022/05/03 02:32:58;;;;;;;10.68;9.68;;;11.90;99.90;;;11.51;100.00;100314.41;4998162;28;20046;-79
2022/05/03 02:35:33;;;;;;;9.52;8.63;;;11.60;99.90;;;11.35;100.00;100314.84;4998697;28;20081;-79
2022/05/03 02:38:06;;;;;;;9.68;8.73;;;11.60;99.90;;;11.27;100.00;100317.69;4980748;28;20050;-79
2022/05/03 02:40:39;;;;;;;10.00;9.10;;;12.30;99.90;;;11.23;100.00;100320.47;5012718;28;20054;-79
2022/05/03 02:43:09;;;;;;;9.73;8.82;;;11.50;99.90;;;11.12;100.00;100323.38;4987507;28;20053;-79
2022/05/03 02:45:48;;;;;;;11.20;9.27;;;11.40;99.90;;;11.09;100.00;100324.34;4997615;28;20070;-79
2022/05/03 02:48:33;;;;;;;13.65;9.55;;;11.40;99.90;;;11.10;100.00;100322.56;4963168;28;20055;-79
2022/05/03 02:51:04;;;;;;;10.88;8.93;;;11.30;99.90;;;11.11;100.00;100322.53;4978435;28;20047;-79
2022/05/03 02:53:51;;;;;;;10.50;9.40;;;11.30;99.90;;;11.09;100.00;100319.09;4978677;28;20039;-79
2022/05/03 02:56:30;;;;;;;15.27;13.88;;;11.60;99.90;;;11.12;100.00;100318.13;5006719;28;20057;-79
2022/05/03 03:01:47;;;;;;;11.85;10.77;;;11.50;99.90;;;11.02;100.00;100325.41;4981405;28;20464;-79
2022/05/03 03:02:35;;;;;;;11.93;9.88;;;11.20;99.90;;;11.02;100.00;100314.88;4997498;28;20121;-80
2022/05/03 03:05:08;;;;;;;11.45;10.35;;;11.20;99.90;;;10.95;100.00;100315.97;4981595;28;20050;-79
2022/05/03 03:08:03;;;;;;;11.40;10.30;;;11.10;99.90;;;10.95;100.00;100321.22;4996419;28;20045;-79
2022/05/03 03:11:04;;;;;;;10.52;9.52;;;11.10;99.90;;;10.83;100.00;100314.50;4996595;28;20042;-79
2022/05/03 03:14:05;;;;;;;11.27;10.15;;;11.10;99.90;;;10.78;100.00;100315.47;5012845;28;20117;-79
2022/05/03 03:16:38;;;;;;;10.02;9.13;;;11.10;99.90;;;10.80;100.00;100312.81;4998501;28;20133;-80
2022/05/03 03:19:19;;;;;;;11.93;9.82;;;11.00;99.90;;;10.83;100.00;100315.38;5011484;28;20057;-79
2022/05/03 03:21:50;;;;;;;10.23;9.18;;;11.00;99.90;;;10.81;100.00;100316.31;5013985;28;20049;-79
2022/05/03 03:24:20;;;;;;;15.05;10.80;;;12.40;99.90;;;10.66;100.00;100309.69;5011703;28;20048;-79
2022/05/03 03:26:49;;;;;;;36.25;26.08;;;11.00;99.90;;;10.53;100.00;100314.34;5013116;28;20081;-79
2022/05/03 03:29:18;;;;;;;87.50;51.33;;;10.90;99.90;;;10.50;100.00;100317.94;5011395;28;20042;-79
2022/05/03 03:31:48;;;;;;;131.90;77.32;;;10.90;99.90;;;10.55;100.00;100318.69;4996396;28;20042;-80
2022/05/03 03:34:16;;;;;;;81.15;50.70;;;10.80;99.90;;;10.45;100.00;100310.16;5012598;28;20062;-79
2022/05/03 03:36:47;;;;;;;44.03;28.10;;;10.70;99.90;;;10.36;100.00;100312.97;5004812;28;20142;-79
2022/05/03 03:39:14;;;;;;;23.27;17.38;;;10.80;99.90;;;10.32;100.00;100306.06;4991791;28;20065;-79
2022/05/03 03:41:42;;;;;;;17.60;14.18;;;10.80;99.90;;;10.28;100.00;100309.69;4993187;28;20051;-79
2022/05/03 03:44:09;;;;;;;17.48;11.95;;;11.10;99.90;;;10.33;100.00;100313.94;4978249;28;20130;-80
2022/05/03 03:46:36;;;;;;;12.90;11.25;;;10.60;99.90;;;10.39;100.00;100318.19;4994102;28;20046;-79
2022/05/03 03:49:06;;;;;;;16.17;11.65;;;10.60;99.90;;;10.38;100.00;100305.94;4993546;28;20051;-80
2022/05/03 03:51:33;;;;;;;19.38;11.52;;;10.60;99.90;;;10.34;100.00;100314.78;4994217;28;20070;-78
2022/05/03 03:54:00;;;;;;;13.20;11.63;;;10.60;99.90;;;10.22;100.00;100323.84;4993918;28;20814;-79
2022/05/03 03:56:27;;;;;;;16.35;12.57;;;10.60;99.90;;;10.20;100.00;100315.97;4977744;28;20054;-79
2022/05/03 03:58:54;;;;;;;16.27;13.65;;;10.50;99.90;;;10.34;100.00;100314.78;4977203;28;20047;-79
2022/05/03 04:01:22;;;;;;;14.13;12.23;;;10.50;99.90;;;10.24;100.00;100316.78;4986382;28;20403;-80
2022/05/03 04:03:51;;;;;;;13.75;11.43;;;10.50;99.90;;;10.20;100.00;100326.47;4988860;28;20085;-78
2022/05/03 04:06:21;;;;;;;15.98;11.75;;;10.50;99.90;;;10.15;100.00;100312.59;4972531;28;20141;-78
2022/05/03 04:08:48;;;;;;;14.63;11.18;;;11.00;99.90;;;10.12;100.00;100328.44;4972802;28;20054;-77
2022/05/03 04:11:18;;;;;;;13.43;10.40;;;10.40;99.90;;;10.08;100.00;100324.16;4973921;28;20557;-78
2022/05/03 04:13:45;;;;;;;14.23;11.63;;;10.80;99.90;;;10.05;100.00;100334.72;4987904;28;20039;-76
2022/05/03 04:16:14;;;;;;;12.93;11.52;;;10.30;99.90;;;9.94;100.00;100334.97;4979012;28;20047;-77
2022/05/03 04:18:44;;;;;;;13.30;11.93;;;10.90;99.90;;;9.99;100.00;100338.38;4975656;28;20038;-78
2022/05/03 04:21:21;;;;;;;14.88;11.35;;;10.50;99.90;;;9.97;100.00;100342.78;4990414;28;20708;-80
2022/05/03 04:23:51;;;;;;;12.75;11.35;;;10.20;99.90;;;9.93;100.00;100335.88;4973681;28;20093;-78
2022/05/03 04:26:21;;;;;;;11.57;10.27;;;10.20;99.90;;;9.98;100.00;100346.28;4989429;28;20034;-80
2022/05/03 04:28:58;;;;;;;12.57;10.10;;;10.30;99.90;;;9.98;100.00;100351.53;4973786;28;20425;-80
2022/05/03 04:31:30;;;;;;;11.25;10.13;;;10.20;99.90;;;9.93;100.00;100347.25;4989629;28;20061;-79
2022/05/03 04:34:03;;;;;;;11.80;9.90;;;10.20;99.90;;;9.91;100.00;100348.19;4992477;28;20788;-81
2022/05/03 04:36:32;;;;;;;10.05;9.15;;;10.50;99.90;;;9.90;100.00;100347.31;4991721;28;20105;-81
2022/05/03 04:39:17;;;;;;;11.23;8.65;;;10.20;99.90;;;9.89;100.00;100335.06;4985567;28;20043;-80
2022/05/03 04:41:44;;;;;;;9.95;8.95;;;10.20;99.90;;;9.93;100.00;100347.25;4970963;28;20050;-79
2022/05/03 04:44:32;;;;;;;10.52;9.18;;;10.10;99.90;;;9.81;100.00;100347.50;4987480;28;20050;-82
2022/05/03 04:47:15;;;;;;;9.65;8.75;;;9.90;99.90;;;9.75;100.00;100348.50;5003314;28;20081;-78
2022/05/03 04:49:42;;;;;;;10.20;9.20;;;10.00;99.90;;;9.72;100.00;100350.31;4975255;28;20049;-80
2022/05/03 04:52:10;;;;;;;13.68;10.50;;;10.00;99.90;;;9.81;100.00;100349.25;4988972;28;20065;-79
2022/05/03 04:54:38;;;;;;;10.40;9.40;;;10.00;99.90;;;9.85;100.00;100356.22;4972531;28;20042;-81
2022/05/03 04:57:06;;;;;;;11.32;9.77;;;11.10;99.90;;;9.90;100.00;100356.97;4956211;28;20056;-80
2022/05/03 04:59:36;;;;;;;13.48;10.10;;;10.10;99.90;;;9.84;100.00;100349.22;4974033;28;20054;-79
2022/05/03 05:02:04;;;;;;;11.15;10.05;;;10.10;99.90;;;9.80;100.00;100364.19;4975139;28;20137;-79
2022/05/03 05:04:31;;;;;;;11.88;10.68;;;10.10;99.90;;;9.77;100.00;100361.63;4979250;28;20094;-77
2022/05/03 05:06:58;;;;;;;12.40;11.10;;;10.20;99.90;;;9.89;100.00;100366.59;4988240;28;20635;-78
2022/05/03 05:09:25;;;;;;;12.13;10.27;;;11.60;99.90;;;9.77;100.00;100362.47;5003507;28;20121;-78
2022/05/03 05:11:52;;;;;;;11.90;10.70;;;10.10;99.90;;;9.87;100.00;100367.53;4991006;28;20034;-78
2022/05/03 05:14:20;;;;;;;11.75;10.65;;;10.20;99.90;;;9.90;100.00;100370.09;5003855;28;20058;-78
2022/05/03 05:16:49;;;;;;;10.70;9.65;;;10.10;99.90;;;9.92;100.00;100374.44;4990601;28;20406;-78
2022/05/03 05:19:16;;;;;;;10.65;9.63;;;10.40;99.90;;;10.04;100.00;100372.44;4988144;28;20078;-77
2022/05/03 05:21:43;;;;;;;10.98;9.90;;;10.20;99.90;;;10.10;100.00;100377.56;4989993;28;20074;-78
2022/05/03 05:24:11;;;;;;;11.85;10.43;;;11.20;99.90;;;10.13;100.00;100379.25;4972347;28;20054;-78
2022/05/03 05:26:41;;;;;;;11.95;10.07;;;10.20;99.90;;;10.19;100.00;100377.34;4973908;28;20049;-77
2022/05/03 05:29:08;;;;;;;11.10;9.98;;;10.30;99.90;;;10.18;100.00;100380.88;4972724;28;20042;-77
2022/05/03 05:31:35;;;;;;;10.85;9.85;;;10.30;99.90;;;10.20;100.00;100380.84;4990114;28;20662;-78
2022/05/03 05:34:02;;;;;;;9.63;8.65;;;11.10;99.90;;;10.28;100.00;100389.41;4974443;28;20097;-78
2022/05/03 05:36:29;;;;;;;12.70;11.35;;;10.40;99.90;;;10.28;100.00;100381.53;4990025;28;20080;-78
2022/05/03 05:38:56;;;;;;;10.55;9.60;;;10.40;99.90;;;10.36;100.00;100384.00;5006666;28;20129;-79
2022/05/03 05:41:23;;;;;;;13.50;10.68;;;10.50;99.90;;;10.33;100.00;100379.69;5006602;28;20042;-78
2022/05/03 05:43:50;;;;;;;14.32;10.60;;;10.50;99.90;;;10.44;100.00;100394.38;5007135;28;20050;-78
2022/05/03 05:46:17;;;;;;;11.77;10.32;;;10.60;99.90;;;10.44;100.00;100389.09;4991186;28;20563;-78
2022/05/03 05:48:45;;;;;;;12.02;10.75;;;10.60;99.90;;;10.59;100.00;100395.78;5007834;28;20069;-78
2022/05/03 05:51:14;;;;;;;13.98;11.40;;;10.70;99.90;;;10.61;100.00;100384.34;4992744;28;20129;-79
2022/05/03 05:53:43;;;;;;;11.93;10.70;;;10.70;99.90;;;10.75;100.00;100391.00;5007692;28;20101;-78
2022/05/03 05:56:11;;;;;;;12.40;11.30;;;10.80;99.90;;;10.77;100.00;100387.44;5005761;28;20054;-78
2022/05/03 05:58:45;;;;;;;11.30;10.00;;;10.90;99.90;;;10.78;100.00;100386.53;4991012;28;20042;-78
2022/05/03 06:01:13;;;;;;;12.30;11.20;;;10.90;99.90;;;10.88;100.00;100389.81;5007137;28;20456;-78
2022/05/03 06:03:42;;;;;;;12.55;11.25;;;11.00;99.90;;;11.02;100.00;100399.13;5007186;28;20040;-78
2022/05/03 06:06:09;;;;;;;13.05;11.85;;;11.00;99.90;;;11.09;100.00;100394.56;5006282;28;20495;-78
2022/05/03 06:08:37;;;;;;;11.70;10.45;;;11.20;99.90;;;11.18;100.00;100396.97;4991134;28;20500;-78
2022/05/03 06:11:04;;;;;;;12.05;11.05;;;11.30;99.90;;;11.28;100.00;100401.06;4974730;28;20043;-78
2022/05/03 06:13:31;;;;;;;12.45;11.18;;;11.30;99.90;;;11.34;100.00;100403.56;4974706;28;20050;-78
2022/05/03 06:16:11;;;;;;;12.43;11.10;;;11.30;99.90;;;11.40;100.00;100405.19;4991330;28;20077;-78
2022/05/03 06:18:38;;;;;;;12.55;11.35;;;11.40;99.90;;;11.45;100.00;100397.13;4990826;28;20054;-78
2022/05/03 06:21:07;;;;;;;12.10;10.90;;;11.50;99.90;;;11.49;100.00;100396.16;4990161;28;20073;-77
2022/05/03 06:23:35;;;;;;;12.45;10.27;;;11.60;99.90;;;11.59;100.00;100405.53;4973840;28;20137;-78
2022/05/03 06:26:05;;;;;;;12.20;10.93;;;11.60;99.90;;;11.68;100.00;100407.03;4974628;28;20456;-78
2022/05/03 06:28:41;;;;;;;11.02;9.55;;;11.70;99.90;;;11.75;100.00;100405.09;4975894;28;20042;-78
2022/05/03 06:31:08;;;;;;;12.77;11.52;;;11.80;99.90;;;11.78;100.00;100407.63;4990722;28;20435;-79
2022/05/03 06:33:36;;;;;;;13.27;12.07;;;11.80;99.90;;;11.86;100.00;100400.38;4992006;28;20419;-78
2022/05/03 06:36:10;;;;;;;11.85;10.57;;;11.90;99.90;;;11.91;100.00;100394.97;4991225;28;20046;-78
2022/05/03 06:38:37;;;;;;;12.25;10.95;;;12.30;99.90;;;12.02;100.00;100399.97;5006973;28;20054;-78
2022/05/03 06:41:04;;;;;;;12.68;11.38;;;13.00;99.90;;;12.04;100.00;100399.03;5006953;28;20050;-78
2022/05/03 06:43:31;;;;;;;11.43;10.18;;;12.00;99.90;;;12.12;100.00;100396.16;4991645;28;20056;-78
2022/05/03 06:45:59;;;;;;;13.10;11.20;;;12.10;99.90;;;12.24;100.00;100400.19;5006677;28;20055;-79
2022/05/03 06:48:26;;;;;;;12.93;11.68;;;12.20;99.90;;;12.33;100.00;100399.03;5006447;28;20038;-79
2022/05/03 06:50:53;;;;;;;12.65;11.35;;;13.40;99.90;;;12.39;100.00;100405.91;4991683;28;20042;-78
2022/05/03 06:53:20;;;;;;;12.13;11.02;;;12.40;99.90;;;12.48;100.00;100403.84;5006172;28;20034;-78
2022/05/03 06:55:47;;;;;;;11.77;10.65;;;12.50;99.90;;;12.60;100.00;100412.28;4988630;28;20065;-78
2022/05/03 06:58:14;;;;;;;12.93;11.73;;;12.60;99.90;;;12.71;100.00;100409.31;4990402;28;20050;-78
2022/05/03 07:00:41;;;;;;;13.68;12.40;;;12.60;99.90;;;12.86;100.00;100407.94;5005831;28;20038;-78
2022/05/03 07:03:08;;;;;;;12.52;11.23;;;12.80;99.90;;;13.01;100.00;100411.84;5005443;28;20050;-78
2022/05/03 07:05:35;;;;;;;13.35;12.05;;;13.40;99.90;;;13.16;100.00;100406.06;5001954;28;20082;-77
2022/05/03 07:08:03;;;;;;;12.52;11.23;;;13.10;99.90;;;13.28;100.00;100417.13;5004553;28;20054;-78
2022/05/03 07:10:30;;;;;;;12.23;10.82;;;13.20;99.90;;;13.38;100.00;100410.56;4993230;28;20049;-79
2022/05/03 07:12:57;;;;;;;12.82;11.50;;;13.30;99.90;;;13.58;100.00;100414.31;5010741;28;20042;-79
2022/05/03 07:15:24;;;;;;;13.63;12.10;;;13.40;99.90;;;13.70;100.00;100411.25;4994503;28;20521;-79
2022/05/03 07:23:24;;;;;;;13.45;12.18;;;13.80;99.90;;;13.86;100.00;100419.47;5003021;28;20668;-75
2022/05/03 07:25:51;;;;;;;12.40;11.10;;;13.90;99.90;;;14.04;100.00;100415.28;4990019;28;20070;-74
2022/05/03 07:28:18;;;;;;;15.38;11.77;;;14.00;99.90;;;14.22;100.00;100410.22;4989093;28;20488;-74
2022/05/03 07:30:45;;;;;;;13.98;12.68;;;14.20;99.90;;;14.35;100.00;100407.06;5004847;28;20042;-74
2022/05/03 07:33:12;;;;;;;13.57;12.02;;;14.20;99.90;;;14.49;100.00;100401.25;5005289;28;20042;-75
2022/05/03 07:35:39;;;;;;;13.35;12.13;;;14.30;99.90;;;14.54;100.00;100407.22;4989777;28;20042;-74
2022/05/03 07:38:06;;;;;;;13.02;11.65;;;14.40;99.90;;;14.70;100.00;100410.97;4989851;28;20073;-74
2022/05/03 07:40:33;;;;;;;12.68;11.38;;;14.50;99.90;;;14.82;100.00;100404.34;4989148;28;20080;-75
2022/05/03 07:43:03;;;;;;;13.73;12.30;;;14.60;99.90;;;14.85;100.00;100409.53;4988634;28;20746;-75
2022/05/03 07:45:30;;;;;;;15.02;12.38;;;14.70;99.90;;;14.81;100.00;100409.72;4989554;28;20044;-75
2022/05/03 07:48:04;;;;;;;12.27;11.05;;;14.80;99.90;;;14.97;100.00;100410.81;4990165;28;20093;-76
2022/05/03 07:50:32;;;;;;;13.30;12.00;;;14.80;99.90;;;15.08;100.00;100412.16;4989669;28;20050;-76
2022/05/03 07:52:59;;;;;;;11.60;10.40;;;14.90;99.90;;;15.16;100.00;100410.00;5005767;28;20491;-76
2022/05/03 07:55:26;;;;;;;10.10;9.15;;;14.80;99.90;;;15.29;100.00;100415.66;5005535;28;20053;-76
2022/05/03 07:57:53;;;;;;;10.40;9.40;;;15.00;99.90;;;15.34;100.00;100408.38;5006475;28;20056;-77
2022/05/03 08:00:20;;;;;;;10.95;9.88;;;15.10;99.90;;;15.46;100.00;100414.94;4993744;28;20056;-77
2022/05/03 08:02:47;;;;;;;11.05;9.95;;;15.20;99.90;;;15.53;100.00;100413.75;5010483;28;20058;-76
2022/05/03 08:05:16;;;;;;;10.48;9.27;;;15.20;99.90;;;15.59;100.00;100402.84;4993111;28;20043;-76
2022/05/03 08:07:44;;;;;;;9.77;8.88;;;15.40;99.90;;;15.68;100.00;100404.22;5008854;28;20022;-78
2022/05/03 08:10:11;;;;;;;11.02;9.95;;;15.40;99.80;;;15.81;100.00;100409.00;4985172;28;20137;-78
2022/05/03 08:12:38;;;;;;;13.00;9.63;;;15.60;99.80;;;15.85;100.00;100406.13;4988357;28;20057;-78
2022/05/03 08:15:06;;;;;;;9.07;8.18;;;15.60;99.70;;;15.99;100.00;100408.16;5001225;28;20138;-77
2022/05/03 08:17:33;;;;;;;8.02;7.22;;;15.70;99.20;;;16.07;100.00;100404.28;5001145;28;20046;-77
2022/05/03 08:20:00;;;;;;;9.25;7.85;;;15.80;98.90;;;16.09;100.00;100407.75;4974203;28;20057;-77
2022/05/03 08:22:27;;;;;;;9.25;8.35;;;15.90;98.60;;;16.15;100.00;100405.66;4976905;28;20104;-77
2022/05/03 08:24:55;;;;;;;8.65;7.85;;;15.90;98.80;;;16.23;100.00;100407.09;4980302;28;20050;-76
2022/05/03 08:27:22;;;;;;;8.00;7.30;;;16.00;98.70;;;16.35;100.00;100413.63;4984814;28;20054;-76
2022/05/03 08:29:49;;;;;;;8.27;7.47;;;16.10;98.70;;;16.47;100.00;100409.50;4987737;28;20407;-77
2022/05/03 08:32:16;;;;;;;8.55;7.75;;;16.20;98.50;;;16.54;100.00;100418.91;5003876;28;20061;-76
2022/05/03 08:34:44;;;;;;;8.52;7.72;;;16.20;98.40;;;16.67;100.00;100414.72;4988632;28;20038;-77
2022/05/03 08:42:51;;;;;;;10.35;8.23;;;16.60;97.90;;;17.11;100.00;100423.25;4989610;28;20050;-79
2022/05/03 08:45:19;;;;;;;8.45;7.57;;;16.80;97.50;;;17.25;100.00;100423.44;4989749;28;20085;-79
2022/05/03 08:47:48;;;;;;;11.25;7.70;;;16.90;97.40;;;17.46;100.00;100427.69;4973723;28;20047;-78
2022/05/03 08:50:19;;;;;;;12.05;8.40;;;17.10;97.60;;;17.60;100.00;100424.31;4989108;28;20117;-79
2022/05/03 08:53:02;;;;;;;9.00;8.10;;;17.30;97.20;;;17.72;100.00;100427.19;4991644;28;20092;-79
2022/05/03 08:55:29;;;;;;;8.43;7.63;;;17.40;97.10;;;17.86;100.00;100425.59;4973953;28;20449;-79
2022/05/03 08:57:57;;;;;;;9.82;7.53;;;17.60;97.00;;;17.96;100.00;100420.63;4989481;28;20042;-79
2022/05/03 09:00:25;;;;;;;11.98;8.38;;;17.70;96.70;;;18.02;100.00;100422.97;4990504;28;20053;-78
2022/05/03 09:02:55;;;;;;;9.15;8.25;;;17.80;96.90;;;18.12;100.00;100434.00;4990688;28;20482;-79
2022/05/03 09:05:24;;;;;;;7.60;6.90;;;17.90;96.60;;;18.20;100.00;100428.25;4957065;28;20943;-78
2022/05/03 09:07:57;;;;;;;7.82;6.95;;;18.00;96.20;;;18.35;100.00;100422.09;4973509;28;20074;-79
2022/05/03 09:10:31;;;;;;;9.65;7.88;;;18.10;96.30;;;18.53;100.00;100424.66;5005190;28;20070;-79
2022/05/03 09:13:22;;;;;;;9.85;7.82;;;18.20;96.40;;;18.59;100.00;100424.31;4990032;28;20065;-78
2022/05/03 09:15:56;;;;;;;8.90;7.95;;;18.40;95.90;;;18.70;100.00;100421.88;4990064;28;20073;-78
2022/05/03 09:18:26;;;;;;;8.95;7.68;;;18.40;96.00;;;18.78;100.00;100413.44;5006474;28;20050;-79
2022/05/03 09:23:49;;;;;;;;;;;18.60;95.60;;;19.15;100.00;100420.25;5004825;28;19933;-79
2022/05/03 09:26:24;;;;;;;7.30;6.60;;;18.80;95.80;;;19.25;100.00;100421.44;5005648;28;19957;-79
2022/05/03 09:29:08;;;;;;;11.65;7.88;;;18.90;95.60;;;19.20;100.00;100418.16;4975079;28;20046;-78
2022/05/03 09:31:47;;;;;;;8.50;7.57;;;19.00;95.20;;;19.26;100.00;100421.34;4990602;28;20130;-79
2022/05/03 09:34:28;;;;;;;7.40;6.70;;;19.10;95.20;;;19.40;100.00;100428.53;4990173;28;20045;-77
2022/05/03 09:37:00;;;;;;;9.43;7.50;;;19.10;95.00;;;19.46;97.59;100424.63;4989916;28;20137;-79
2022/05/03 09:39:42;;;;;;;10.38;6.70;;;19.20;94.80;;;19.47;100.00;100429.00;4990497;28;20069;-79
2022/05/03 09:42:18;;;;;;;8.80;7.93;;;19.30;95.20;;;19.46;100.00;100421.97;4989873;28;20056;-79
2022/05/03 09:44:54;;;;;;;8.30;7.55;;;19.30;95.00;;;19.54;100.00;100421.50;4989425;28;20122;-78
2022/05/03 09:47:24;;;;;;;8.95;7.75;;;19.30;95.00;;;19.59;98.10;100424.72;4957564;28;20483;-78
2022/05/03 09:49:51;;;;;;;10.40;7.63;;;19.30;94.70;;;19.64;100.00;100419.13;4991084;28;20042;-78
2022/05/03 09:52:40;;;;;;;9.00;8.13;;;20.40;95.20;;;19.63;99.93;100418.25;4989615;28;20038;-79
2022/05/03 09:55:10;;;;;;;9.88;8.88;;;19.40;94.80;;;19.61;99.54;100403.31;4991216;28;20057;-77
2022/05/03 09:57:40;;;;;;;9.85;7.63;;;19.40;94.70;;;19.69;97.45;100414.34;4990068;28;20684;-77
2022/05/03 10:00:11;;;;;;;9.40;7.95;;;19.50;94.60;;;19.73;97.10;100413.19;4990554;28;20058;-76
2022/05/03 10:02:43;;;;;;;8.52;7.72;;;19.50;94.50;;;19.61;98.23;100408.63;4975858;28;20069;-76
2022/05/03 10:05:15;;;;;;;9.07;8.18;;;19.50;94.50;;;19.87;95.71;100409.69;4976320;28;20076;-76
2022/05/03 10:07:43;;;;;;;8.52;7.18;;;19.60;94.30;;;20.07;92.29;100402.25;4974124;28;20146;-75
2022/05/03 10:10:12;;;;;;;8.43;6.93;;;19.70;94.10;;;20.19;93.23;100405.94;4990296;28;20044;-79
2022/05/03 10:12:43;;;;;;;9.35;6.43;;;19.90;94.20;;;20.23;82.62;100400.31;5007053;28;20150;-79
2022/05/03 10:15:12;;;;;;;7.60;6.72;;;20.00;93.30;;;20.33;79.71;100384.53;5006408;28;20404;-78
2022/05/03 10:20:42;;;;;;;9.65;7.35;;;20.10;93.40;;;20.59;82.48;100383.78;5007185;28;20465;-76
2022/05/03 10:23:32;;;;;;;7.78;7.07;;;20.20;93.10;;;20.60;74.40;100391.72;5008630;28;20046;-79
2022/05/03 10:26:05;;;;;;;7.45;6.32;;;20.30;92.30;;;20.67;74.81;100378.81;5003424;28;20126;-77
2022/05/03 10:29:03;;;;;;;11.55;8.25;;;20.40;92.20;;;20.77;81.49;100387.94;4993320;28;20503;-78
2022/05/03 10:31:31;;;;;;;13.88;12.40;;;20.50;93.00;;;20.69;87.86;100384.91;4988435;28;20073;-78
2022/05/03 10:34:02;;;;;;;13.10;9.70;;;20.50;93.30;;;20.76;93.89;100380.88;4975593;28;20125;-79
2022/05/03 10:36:40;;;;;;;14.80;12.10;;;20.50;93.80;;;20.79;92.30;100386.03;4976442;28;20042;-77
2022/05/03 10:39:21;;;;;;;14.68;11.77;;;20.60;93.70;;;20.82;88.50;100371.59;4975242;28;20069;-79
2022/05/03 10:42:01;;;;;;;14.13;12.50;;;20.60;93.30;;;20.87;91.27;100379.31;4973193;28;20042;-77
2022/05/03 10:44:41;;;;;;;;;;;20.60;93.50;;;20.85;89.38;100367.88;4975153;28;20046;-78
2022/05/03 10:47:18;;;;;;;14.07;12.63;;;20.70;93.40;;;20.76;88.03;100372.84;4991506;28;20401;-78
2022/05/03 10:50:12;;;;;;;14.70;11.70;;;20.70;93.00;;;20.87;87.41;100360.59;4990052;28;20038;-76
2022/05/03 10:53:02;;;;;;;13.82;12.52;;;20.70;93.00;;;20.96;89.13;100365.34;4984632;28;20137;-78
2022/05/03 10:55:37;;;;;;;13.57;12.30;;;20.70;93.30;;;21.03;86.86;100357.75;4977064;28;20073;-77